KRHV 240347Z 30006KT 10SM SKC 22/15 A2984